Time;durP1;ratioP1;P1;durP2;ratioP2;P2;SDS_P1;SDS_P2;PMS_P1;PMS_P2;Temp;Humidity;BMP_temperature;BMP_pressure;BME280_temperature;BME280_humidity;BME280_pressure;Samples;Min_cycle;Max_cycle;Signal;HPM_P1;HPM_P2
2023/08/10 00:02:24;;;;;;;4.45;2.42;;;;;;;19.89;68.85;100736.25;4971171;28;20027;-89
2023/08/10 00:04:49;;;;;;;3.05;2.13;;;;;;;19.92;69.28;100745.97;4977427;28;20053;-88
2023/08/10 00:07:15;;;;;;;3.63;2.53;;;;;;;19.85;69.35;100734.06;4976527;28;20418;-89
2023/08/10 00:09:40;;;;;;;3.75;2.30;;;;;;;19.81;69.37;100725.41;4974469;28;20042;-88
2023/08/10 00:12:06;;;;;;;2.45;2.20;;;;;;;19.71;69.75;100727.53;4972893;28;20042;-89
2023/08/10 00:14:32;;;;;;;5.20;3.25;;;;;;;19.73;70.09;100736.38;4975057;28;20031;-88
2023/08/10 00:16:58;;;;;;;3.83;3.10;;;;;;;19.74;70.38;100738.06;4993651;28;20027;-89
2023/08/10 00:19:24;;;;;;;4.57;2.80;;;;;;;19.69;70.20;100735.06;4999174;28;20038;-89
2023/08/10 00:21:49;;;;;;;5.20;2.30;;;;;;;19.64;70.48;100734.72;4995406;28;20050;-89
2023/08/10 00:24:15;;;;;;;5.05;2.55;;;;;;;19.54;70.58;100712.28;4995970;28;20035;-89
2023/08/10 00:26:40;;;;;;;5.85;2.47;;;;;;;19.60;70.61;100727.91;4996543;28;20079;-90
2023/08/10 00:29:06;;;;;;;6.38;2.60;;;;;;;19.49;70.91;100731.94;4982349;28;20035;-89
2023/08/10 00:31:31;;;;;;;7.32;2.22;;;;;;;19.50;71.06;100711.81;4971514;28;20037;-90
2023/08/10 00:33:56;;;;;;;6.57;2.30;;;;;;;19.53;70.97;100716.91;4971434;28;20035;-88
2023/08/10 00:36:22;;;;;;;4.35;2.17;;;;;;;19.55;71.00;100712.09;4988297;28;20422;-88
2023/08/10 00:38:47;;;;;;;6.18;2.67;;;;;;;19.52;71.17;100696.09;4972329;28;20726;-89
2023/08/10 00:41:13;;;;;;;3.65;2.83;;;;;;;19.53;71.16;100684.16;4988039;28;20034;-89
2023/08/10 00:43:40;;;;;;;10.18;2.63;;;;;;;19.64;70.76;100695.66;4988205;28;20058;-89
2023/08/10 00:46:08;;;;;;;4.85;2.75;;;;;;;19.60;70.80;100706.09;4988175;28;20614;-88
2023/08/10 00:48:34;;;;;;;5.82;2.67;;;;;;;19.61;71.31;100699.63;4968452;28;20039;-89
2023/08/10 00:51:00;;;;;;;2.80;2.50;;;;;;;19.54;70.99;100693.16;4968095;28;20093;-90
2023/08/10 00:53:25;;;;;;;8.13;3.00;;;;;;;19.47;71.17;100686.75;4952209;28;20050;-89
2023/08/10 00:55:53;;;;;;;5.13;2.50;;;;;;;19.59;71.59;100711.75;4968004;28;20178;-89
2023/08/10 00:58:19;;;;;;;4.50;2.95;;;;;;;19.63;71.68;100702.19;4968502;28;20039;-90
2023/08/10 01:00:46;;;;;;;5.13;2.53;;;;;;;19.69;70.93;100712.38;4968592;28;20585;-89
2023/08/10 01:03:11;;;;;;;5.15;2.53;;;;;;;19.71;70.67;100704.84;4968174;28;20045;-90
2023/08/10 01:05:45;;;;;;;5.60;2.90;;;;;;;19.63;70.95;100692.09;4968885;28;20035;-89
2023/08/10 01:08:13;;;;;;;6.28;2.72;;;;;;;19.73;70.92;100708.22;4968343;28;20034;-88
2023/08/10 01:10:53;;;;;;;7.45;3.20;;;;;;;19.74;70.58;100705.31;4968552;28;20122;-88
2023/08/10 01:13:48;;;;;;;6.78;3.03;;;;;;;19.74;71.38;100696.28;4968554;28;20062;-88
2023/08/10 01:16:15;;;;;;;7.50;3.38;;;;;;;19.60;70.79;100670.63;4911344;29;20036;-90
2023/08/10 01:18:42;;;;;;;5.18;2.65;;;;;;;19.62;70.80;100663.13;4896983;29;20081;-89
2023/08/10 01:21:26;;;;;;;2.85;2.38;;;;;;;19.78;70.97;100679.38;4919722;28;20048;-88
2023/08/10 01:23:54;;;;;;;8.88;3.47;;;;;;;19.80;70.76;100681.91;4925018;28;20040;-88
2023/08/10 01:26:21;;;;;;;10.27;3.35;;;;;;;19.82;70.52;100679.84;4911666;29;20044;-87
2023/08/10 01:28:47;;;;;;;3.47;2.33;;;;;;;19.88;70.55;100674.50;4911359;29;20040;-88
2023/08/10 01:31:13;;;;;;;7.50;3.05;;;;;;;19.83;70.45;100662.44;4913151;29;20032;-89
2023/08/10 01:33:39;;;;;;;4.85;2.58;;;;;;;19.87;70.55;100669.22;4914317;29;20131;-89
2023/08/10 01:36:04;;;;;;;3.58;2.40;;;;;;;19.94;70.61;100683.81;4914899;29;20028;-88
2023/08/10 01:38:30;;;;;;;2.92;2.45;;;;;;;19.88;70.61;100668.19;4914264;29;20040;-89
2023/08/10 01:40:55;;;;;;;2.63;2.30;;;;;;;19.97;70.26;100678.00;4913791;29;20570;-88
2023/08/10 01:43:21;;;;;;;6.88;2.83;;;;;;;20.00;70.39;100674.91;4914186;29;20043;-88
2023/08/10 01:45:51;;;;;;;6.07;2.38;;;;;;;19.95;70.33;100663.69;4913735;29;20472;-89
2023/08/10 01:48:24;;;;;;;5.07;2.40;;;;;;;20.06;70.10;100675.00;4913965;29;20059;-89
2023/08/10 01:50:52;;;;;;;4.72;2.38;;;;;;;19.89;70.39;100648.03;4913979;29;20032;-88
2023/08/10 01:53:23;;;;;;;6.85;2.45;;;;;;;19.97;70.56;100667.06;4951763;28;20043;-89
2023/08/10 01:55:49;;;;;;;7.43;3.08;;;;;;;19.96;70.61;100660.78;4974014;28;20402;-88
2023/08/10 01:58:15;;;;;;;4.55;2.40;;;;;;;19.98;71.07;100658.72;4972838;28;20026;-89
2023/08/10 02:00:41;;;;;;;4.13;2.80;;;;;;;20.01;71.91;100643.84;4974529;28;20076;-88
2023/08/10 02:03:06;;;;;;;5.75;2.83;;;;;;;20.05;71.32;100653.38;4975322;28;20053;-89
2023/08/10 02:05:33;;;;;;;5.50;2.47;;;;;;;20.10;71.37;100656.38;4973573;28;20034;-88
2023/08/10 02:07:58;;;;;;;2.85;2.25;;;;;;;20.08;71.24;100658.47;4972391;28;20440;-88
2023/08/10 02:10:24;;;;;;;5.38;2.92;;;;;;;20.20;71.64;100670.63;4973880;28;20030;-88
2023/08/10 02:12:50;;;;;;;7.22;3.08;;;;;;;20.21;71.37;100680.53;4972761;28;20031;-90
2023/08/10 02:15:15;;;;;;;6.78;2.83;;;;;;;20.24;71.06;100679.31;5010668;28;20034;-91
2023/08/10 02:17:41;;;;;;;4.03;2.67;;;;;;;20.21;71.10;100680.53;5011118;28;20038;-88
2023/08/10 02:20:12;;;;;;;6.38;3.05;;;;;;;20.25;71.16;100678.25;4995877;28;20555;-90
2023/08/10 02:22:58;;;;;;;4.38;2.45;;;;;;;20.27;71.36;100696.19;5012836;28;20121;-91
2023/08/10 02:25:23;;;;;;;9.65;2.90;;;;;;;20.27;70.85;100682.53;5016255;28;20045;-88
2023/08/10 02:27:52;;;;;;;7.05;3.05;;;;;;;20.38;71.01;100693.00;4996479;28;20576;-89
2023/08/10 02:30:19;;;;;;;6.32;2.80;;;;;;;20.46;71.00;100684.72;5011671;28;20080;-90
2023/08/10 02:32:44;;;;;;;8.38;3.40;;;;;;;20.34;71.16;100678.00;5011096;28;20034;-90
2023/08/10 02:35:10;;;;;;;7.25;3.78;;;;;;;20.31;71.24;100683.84;5016600;28;20104;-90
2023/08/10 02:37:36;;;;;;;14.85;4.13;;;;;;;20.38;71.13;100698.47;5012949;28;20418;-89
2023/08/10 02:40:11;;;;;;;47.15;8.38;;;;;;;20.39;71.18;100699.31;5026872;28;20042;-90
2023/08/10 02:42:38;;;;;;;9.90;4.50;;;;;;;20.41;71.17;100702.72;5019137;28;20045;-90
2023/08/10 02:45:05;;;;;;;15.07;4.53;;;;;;;20.32;71.40;100680.09;5035404;28;20056;-88
2023/08/10 02:47:30;;;;;;;7.85;4.00;;;;;;;20.35;71.69;100690.66;4997913;28;20086;-90
2023/08/10 02:49:56;;;;;;;9.57;3.45;;;;;;;20.36;71.81;100700.56;4993903;28;20468;-89
2023/08/10 02:52:21;;;;;;;9.23;2.90;;;;;;;20.29;72.03;100688.66;4998582;28;20038;-89
2023/08/10 02:54:47;;;;;;;10.35;3.63;;;;;;;20.35;72.23;100709.78;4980193;28;20027;-90
2023/08/10 02:57:12;;;;;;;7.95;4.05;;;;;;;20.28;72.02;100699.75;4973521;28;20513;-90
2023/08/10 02:59:38;;;;;;;9.23;3.65;;;;;;;20.29;72.18;100694.13;4972671;28;20150;-90
2023/08/10 03:02:05;;;;;;;13.82;4.85;;;;;;;20.22;72.58;100689.53;4974370;28;20403;-90
2023/08/10 03:04:30;;;;;;;9.65;5.25;;;;;;;20.32;72.81;100699.22;4973298;28;20027;-90
2023/08/10 03:06:56;;;;;;;29.17;6.25;;;;;;;20.33;72.94;100695.47;4970928;28;20045;-88
2023/08/10 03:09:21;;;;;;;11.98;5.68;;;;;;;20.16;73.08;100677.47;4972160;28;20030;-89
2023/08/10 03:11:46;;;;;;;16.50;6.20;;;;;;;20.25;73.18;100681.84;4972394;28;20137;-89
2023/08/10 03:14:12;;;;;;;19.73;5.60;;;;;;;20.23;73.28;100678.44;4976286;28;20410;-87
2023/08/10 03:16:37;;;;;;;9.88;5.93;;;;;;;20.25;73.48;100687.28;4981450;28;20030;-89
2023/08/10 03:19:03;;;;;;;15.35;4.68;;;;;;;20.33;73.43;100690.00;4985787;28;20031;-89
2023/08/10 03:21:28;;;;;;;21.80;6.55;;;;;;;20.35;73.86;100687.06;4983619;28;20043;-89
2023/08/10 03:23:55;;;;;;;32.28;9.30;;;;;;;20.34;73.94;100658.03;4973695;28;20037;-89
2023/08/10 03:26:20;;;;;;;36.83;9.40;;;;;;;20.37;74.47;100658.50;4972697;28;20045;-88
2023/08/10 03:28:46;;;;;;;17.58;7.18;;;;;;;20.43;74.59;100668.69;4987776;28;20495;-90
2023/08/10 03:31:12;;;;;;;11.85;5.70;;;;;;;20.43;74.59;100649.56;4972153;28;20037;-89
2023/08/10 03:33:39;;;;;;;10.25;4.60;;;;;;;20.55;74.40;100659.00;4972465;28;20061;-90
2023/08/10 03:36:05;;;;;;;6.85;3.22;;;;;;;20.59;74.33;100668.53;4972242;28;20027;-88
2023/08/10 03:38:30;;;;;;;25.65;5.20;;;;;;;20.60;74.24;100670.22;4974971;28;20034;-89
2023/08/10 03:40:56;;;;;;;25.08;5.50;;;;;;;20.48;74.17;100644.41;4972005;28;20066;-89
2023/08/10 03:43:21;;;;;;;6.07;3.67;;;;;;;20.49;74.69;100650.69;4970766;28;20031;-89
2023/08/10 03:45:46;;;;;;;13.95;4.15;;;;;;;20.57;74.54;100669.75;4978392;28;20078;-89
2023/08/10 03:48:12;;;;;;;7.85;4.03;;;;;;;20.61;74.63;100666.44;4994540;28;20046;-89
2023/08/10 03:50:37;;;;;;;6.88;4.03;;;;;;;20.71;74.53;100670.75;4991994;28;20046;-91
2023/08/10 03:53:03;;;;;;;6.57;3.55;;;;;;;20.67;74.29;100670.31;4990618;28;20652;-88
2023/08/10 03:55:28;;;;;;;4.82;3.13;;;;;;;20.76;74.09;100671.06;4993373;28;20051;-89
2023/08/10 03:57:54;;;;;;;18.38;5.65;;;;;;;20.81;73.39;100665.88;4986859;28;20038;-89
2023/08/10 04:00:21;;;;;;;22.23;5.82;;;;;;;20.86;72.93;100667.00;4972441;28;20051;-89
2023/08/10 04:02:47;;;;;;;12.93;4.22;;;;;;;20.91;72.72;100672.75;4970882;28;20046;-90
2023/08/10 04:05:12;;;;;;;11.93;4.20;;;;;;;21.15;72.27;100677.94;4972468;28;20043;-91
2023/08/10 04:07:38;;;;;;;9.18;3.80;;;;;;;21.11;71.95;100664.81;4991460;28;20035;-91
2023/08/10 04:10:05;;;;;;;28.60;6.75;;;;;;;21.07;71.56;100644.31;4994061;28;20039;-90
2023/08/10 04:12:34;;;;;;;10.93;3.72;;;;;;;21.25;70.95;100657.63;4972993;28;20604;-88
2023/08/10 04:15:02;;;;;;;8.93;3.70;;;;;;;21.24;70.50;100643.09;4990338;28;20038;-89
2023/08/10 04:17:27;;;;;;;19.25;4.57;;;;;;;21.37;69.60;100662.41;4990105;28;20077;-89
2023/08/10 04:19:53;;;;;;;7.90;4.43;;;;;;;21.39;69.60;100660.31;4988713;28;20026;-88
2023/08/10 04:22:18;;;;;;;11.82;3.95;;;;;;;21.44;69.46;100656.97;4989997;28;20065;-89
2023/08/10 04:24:44;;;;;;;9.30;4.40;;;;;;;21.59;68.72;100655.88;4994494;28;20031;-89
2023/08/10 04:27:10;;;;;;;13.77;3.80;;;;;;;21.51;68.44;100625.91;4981110;28;20030;-89
2023/08/10 04:29:36;;;;;;;13.77;4.07;;;;;;;21.62;67.71;100643.69;4986907;28;20042;-90
2023/08/10 04:32:01;;;;;;;13.02;4.88;;;;;;;21.77;67.56;100654.59;4974106;28;20038;-90
2023/08/10 04:34:27;;;;;;;14.93;4.90;;;;;;;21.75;66.94;100641.06;4971575;28;20095;-90
2023/08/10 04:36:53;;;;;;;21.85;4.90;;;;;;;21.80;66.81;100644.09;4971770;28;20062;-89
2023/08/10 04:39:18;;;;;;;20.92;4.82;;;;;;;21.93;66.40;100643.38;4982184;28;20027;-89
2023/08/10 04:41:44;;;;;;;9.70;4.03;;;;;;;22.02;65.91;100643.03;4975761;28;20027;-89
2023/08/10 04:44:09;;;;;;;13.77;5.18;;;;;;;22.21;65.45;100650.56;4972758;28;20031;-91
2023/08/10 04:46:35;;;;;;;41.38;6.13;;;;;;;22.21;64.81;100638.75;4986573;28;20045;-90
2023/08/10 04:49:01;;;;;;;28.98;5.68;;;;;;;22.29;65.00;100641.34;4972063;28;20471;-90
2023/08/10 04:51:27;;;;;;;14.70;4.05;;;;;;;22.47;64.59;100638.94;4972127;28;20034;-91
2023/08/10 04:53:53;;;;;;;22.58;6.95;;;;;;;22.70;64.20;100644.16;4972546;28;20027;-91
2023/08/10 04:56:18;;;;;;;9.00;4.30;;;;;;;22.73;63.44;100636.38;4971770;28;20027;-90
2023/08/10 04:58:44;;;;;;;13.05;4.78;;;;;;;22.88;62.86;100627.13;4973592;28;20022;-91
2023/08/10 05:01:12;;;;;;;9.48;3.88;;;;;;;22.82;62.58;100603.28;4970927;28;20341;-91
2023/08/10 05:03:38;;;;;;;8.38;3.78;;;;;;;22.85;62.92;100620.16;4974164;28;20027;-89
2023/08/10 05:06:03;;;;;;;14.48;4.72;;;;;;;22.93;63.60;100624.66;4972713;28;20549;-87
2023/08/10 05:08:29;;;;;;;5.60;3.72;;;;;;;22.94;64.00;100621.69;4976192;28;20054;-89
2023/08/10 05:10:54;;;;;;;31.02;4.78;;;;;;;23.00;63.92;100628.25;4991513;28;20486;-89
2023/08/10 05:13:20;;;;;;;23.98;4.78;;;;;;;23.02;63.12;100615.19;4979600;28;20015;-90
2023/08/10 05:15:45;;;;;;;15.13;4.00;;;;;;;23.10;63.30;100623.22;4998560;28;20039;-89
2023/08/10 05:18:11;;;;;;;13.23;4.35;;;;;;;23.10;62.93;100623.22;4996047;28;20649;-90
2023/08/10 05:20:37;;;;;;;9.70;4.10;;;;;;;22.91;63.70;100596.56;4979981;28;20053;-88
2023/08/10 05:23:03;;;;;;;15.15;5.70;;;;;;;22.90;64.09;100617.69;5015524;28;20122;-90
2023/08/10 05:25:28;;;;;;;70.85;13.57;;;;;;;22.82;64.13;100616.97;5016853;28;20050;-89
2023/08/10 05:27:54;;;;;;;15.57;4.55;;;;;;;22.83;64.76;100618.69;5002238;28;20030;-91
2023/08/10 05:30:19;;;;;;;11.45;3.88;;;;;;;22.78;65.08;100619.31;5016127;28;20038;-88
2023/08/10 05:32:45;;;;;;;14.07;4.22;;;;;;;22.81;65.41;100612.56;5016862;28;20042;-90
2023/08/10 05:35:11;;;;;;;8.77;3.40;;;;;;;22.75;65.42;100615.06;5000481;28;20560;-91
2023/08/10 05:37:38;;;;;;;15.18;3.40;;;;;;;22.76;65.49;100615.91;4996285;28;20022;-91
2023/08/10 05:40:09;;;;;;;13.43;4.38;;;;;;;22.97;65.32;100631.38;4980777;28;20576;-91
2023/08/10 05:42:34;;;;;;;17.83;4.80;;;;;;;23.11;65.82;100630.41;4979469;28;20113;-91
2023/08/10 05:45:00;;;;;;;13.00;4.38;;;;;;;23.28;64.34;100631.72;4995881;28;20061;-90
2023/08/10 05:47:25;;;;;;;49.35;6.88;;;;;;;23.34;63.77;100625.38;4989210;28;20054;-90
2023/08/10 05:49:51;;;;;;;16.17;3.78;;;;;;;23.49;63.48;100628.84;4978102;28;20170;-92
2023/08/10 05:52:17;;;;;;;18.30;4.38;;;;;;;23.56;63.69;100631.59;4975792;28;20050;-91
2023/08/10 05:54:42;;;;;;;13.65;4.03;;;;;;;23.62;63.91;100625.25;4977957;28;20030;-90
2023/08/10 05:57:08;;;;;;;18.00;5.07;;;;;;;23.69;63.70;100628.88;4977255;28;20034;-90
2023/08/10 05:59:33;;;;;;;14.70;4.60;;;;;;;23.72;64.16;100601.84;4977630;28;20089;-93
2023/08/10 06:01:59;;;;;;;27.25;5.30;;;;;;;23.90;64.18;100605.84;4976292;28;20030;-90
2023/08/10 06:04:24;;;;;;;15.95;4.70;;;;;;;23.96;63.64;100603.09;4977563;28;20026;-90
2023/08/10 06:06:49;;;;;;;8.63;4.22;;;;;;;24.04;63.87;100626.75;4975684;28;20029;-90
2023/08/10 06:09:16;;;;;;;7.03;4.03;;;;;;;24.08;63.68;100628.88;4977840;28;20026;-90
2023/08/10 06:11:42;;;;;;;12.13;4.40;;;;;;;24.18;63.68;100642.22;4977594;28;20110;-90
2023/08/10 06:14:08;;;;;;;30.55;6.53;;;;;;;24.23;63.49;100636.91;4978231;28;20038;-90
2023/08/10 06:16:33;;;;;;;17.77;4.43;;;;;;;24.22;63.22;100635.22;4974855;28;20031;-91
2023/08/10 06:19:00;;;;;;;26.45;4.80;;;;;;;24.29;63.21;100633.31;4977644;28;20422;-92
2023/08/10 06:21:27;;;;;;;21.52;4.82;;;;;;;24.43;62.98;100637.75;4978452;28;20042;-90
2023/08/10 06:23:53;;;;;;;10.25;5.07;;;;;;;24.53;62.26;100643.63;4980715;28;20114;-91
2023/08/10 06:26:18;;;;;;;20.05;4.18;;;;;;;24.56;62.24;100637.69;4977478;28;20132;-90
2023/08/10 06:28:44;;;;;;;37.85;5.10;;;;;;;24.66;61.54;100626.25;4979577;28;20026;-91
2023/08/10 06:31:09;;;;;;;16.17;6.07;;;;;;;24.73;61.40;100638.94;4977294;28;20031;-91
2023/08/10 06:33:36;;;;;;;14.25;5.75;;;;;;;24.73;61.10;100643.59;4978848;28;20157;-90
2023/08/10 06:36:03;;;;;;;22.13;5.15;;;;;;;24.74;60.79;100640.59;4979462;28;20033;-90
2023/08/10 06:38:29;;;;;;;11.90;5.07;;;;;;;24.83;61.09;100647.59;4980163;28;20034;-91
2023/08/10 06:40:55;;;;;;;14.63;5.47;;;;;;;24.92;60.89;100659.22;4977787;28;20034;-90
2023/08/10 06:43:21;;;;;;;13.90;4.00;;;;;;;24.94;60.59;100651.59;4978643;28;20030;-89
2023/08/10 06:45:47;;;;;;;15.05;3.58;;;;;;;24.87;60.34;100626.84;4978287;28;20671;-91
2023/08/10 06:48:12;;;;;;;18.73;8.75;;;;;;;25.00;60.41;100644.38;4992623;28;20122;-89
2023/08/10 06:50:38;;;;;;;28.73;6.03;;;;;;;25.11;60.70;100661.03;4976688;28;20030;-90
2023/08/10 06:53:07;;;;;;;18.83;4.88;;;;;;;25.12;60.38;100656.38;4976541;28;20027;-89
2023/08/10 06:55:33;;;;;;;21.35;4.10;;;;;;;25.10;60.21;100653.00;4990940;28;20545;-89
2023/08/10 06:57:59;;;;;;;17.05;5.88;;;;;;;25.05;60.57;100630.78;4978988;28;20062;-89
2023/08/10 07:00:25;;;;;;;20.90;4.88;;;;;;;25.14;60.38;100648.72;4976098;28;20058;-89
2023/08/10 07:02:54;;;;;;;17.85;5.82;;;;;;;25.04;60.91;100656.63;4979552;28;20034;-91
2023/08/10 07:05:23;;;;;;;20.13;5.15;;;;;;;25.05;60.57;100644.53;4984285;28;20035;-90
2023/08/10 07:07:49;;;;;;;10.32;5.50;;;;;;;24.95;60.95;100646.94;4992571;28;20031;-91
2023/08/10 07:10:15;;;;;;;17.30;5.13;;;;;;;24.94;61.15;100645.22;4976719;28;20134;-91
2023/08/10 07:12:42;;;;;;;19.27;6.50;;;;;;;25.06;61.40;100646.25;4981997;28;20105;-89
2023/08/10 07:15:08;;;;;;;24.60;7.95;;;;;;;25.13;61.34;100634.16;4995541;28;20034;-88
2023/08/10 07:17:34;;;;;;;21.23;5.85;;;;;;;25.38;60.23;100659.84;4995254;28;20030;-90
2023/08/10 07:20:00;;;;;;;15.77;5.50;;;;;;;25.46;60.22;100650.47;5012349;28;20050;-89
2023/08/10 07:22:25;;;;;;;22.30;5.70;;;;;;;25.56;59.96;100639.00;5011169;28;20034;-90
2023/08/10 07:24:52;;;;;;;10.85;5.15;;;;;;;25.69;60.45;100639.75;5011005;28;20065;-90
2023/08/10 07:27:18;;;;;;;18.13;5.97;;;;;;;25.88;60.60;100660.81;4997330;28;20010;-90
2023/08/10 07:29:43;;;;;;;14.27;4.63;;;;;;;25.85;60.46;100650.25;4997118;28;20015;-89
2023/08/10 07:32:09;;;;;;;10.15;4.47;;;;;;;26.01;60.17;100656.25;4997063;28;20035;-89
2023/08/10 07:34:35;;;;;;;7.97;4.32;;;;;;;26.03;59.99;100651.34;4999231;28;20046;-90
2023/08/10 07:37:00;;;;;;;22.23;4.65;;;;;;;26.15;60.14;100661.47;4999461;28;20019;-90
2023/08/10 07:39:26;;;;;;;12.40;3.42;;;;;;;26.29;59.92;100652.03;4999344;28;20046;-89
2023/08/10 07:41:52;;;;;;;23.67;4.63;;;;;;;26.34;59.17;100643.91;4998161;28;20027;-89
2023/08/10 07:44:18;;;;;;;20.23;4.50;;;;;;;26.35;58.81;100639.22;5013849;28;20031;-91
2023/08/10 07:46:46;;;;;;;20.33;4.55;;;;;;;26.47;59.04;100626.38;5014813;28;20090;-90
2023/08/10 07:49:13;;;;;;;31.20;6.22;;;;;;;26.76;58.94;100636.66;4993776;28;20038;-90
2023/08/10 07:51:38;;;;;;;7.13;4.30;;;;;;;26.72;57.82;100610.59;4999603;28;20031;-91
2023/08/10 07:54:04;;;;;;;11.63;4.22;;;;;;;27.10;57.63;100642.63;4988413;28;20031;-90
2023/08/10 07:56:30;;;;;;;14.35;5.65;;;;;;;27.26;56.63;100644.75;5007871;28;20041;-89
2023/08/10 07:58:56;;;;;;;17.73;4.45;;;;;;;27.17;57.10;100646.16;4992425;28;20031;-90
2023/08/10 08:01:21;;;;;;;11.80;4.40;;;;;;;27.19;56.86;100652.28;4988926;28;20349;-90
2023/08/10 08:03:46;;;;;;;22.55;4.35;;;;;;;27.16;56.56;100641.69;4983938;28;20039;-89
2023/08/10 08:06:12;;;;;;;12.57;4.22;;;;;;;27.26;57.20;100650.28;4992366;28;20050;-89
2023/08/10 08:08:37;;;;;;;12.18;3.80;;;;;;;27.33;56.27;100648.28;4990589;28;20033;-89
2023/08/10 08:11:03;;;;;;;11.32;3.47;;;;;;;27.36;55.80;100665.25;4983226;28;20034;-89
2023/08/10 08:13:29;;;;;;;13.63;3.58;;;;;;;27.41;55.98;100656.22;4978333;28;20031;-90
2023/08/10 08:15:54;;;;;;;15.15;4.90;;;;;;;27.38;55.91;100640.97;4976734;28;20035;-90
2023/08/10 08:18:46;;;;;;;17.27;5.30;;;;;;;27.54;55.86;100675.44;4989325;28;20031;-89
2023/08/10 08:21:20;;;;;;;10.85;4.20;;;;;;;27.53;55.88;100676.50;4972021;28;20061;-90
2023/08/10 08:23:47;;;;;;;24.65;7.60;;;;;;;27.37;56.13;100661.38;4988113;28;20380;-89
2023/08/10 08:26:14;;;;;;;13.77;4.10;;;;;;;27.38;56.51;100667.75;4972079;28;20418;-90
2023/08/10 08:28:40;;;;;;;47.80;6.47;;;;;;;27.25;55.89;100679.81;4973044;28;20026;-90
2023/08/10 08:31:06;;;;;;;11.93;3.50;;;;;;;27.00;56.32;100670.81;4972097;28;20046;-89
2023/08/10 08:33:33;;;;;;;9.23;2.85;;;;;;;26.92;56.06;100677.47;4980896;28;20103;-90
2023/08/10 08:35:59;;;;;;;11.60;3.55;;;;;;;26.72;57.11;100684.25;4992265;28;20049;-90
2023/08/10 08:38:25;;;;;;;20.98;3.35;;;;;;;26.73;57.21;100663.84;4973116;28;20098;-89
2023/08/10 08:40:51;;;;;;;12.43;3.40;;;;;;;26.78;56.82;100667.63;4976158;28;20038;-91
2023/08/10 08:43:17;;;;;;;9.63;3.60;;;;;;;26.72;56.20;100654.75;4955694;28;20067;-90
2023/08/10 08:45:45;;;;;;;9.35;2.90;;;;;;;26.72;55.37;100643.72;4956066;29;20106;-93
2023/08/10 08:48:14;;;;;;;16.67;5.22;;;;;;;26.96;54.89;100664.91;4954893;28;20039;-90
2023/08/10 08:50:39;;;;;;;33.40;5.10;;;;;;;27.03;55.25;100659.31;4954695;29;20051;-91
2023/08/10 08:53:07;;;;;;;13.40;3.22;;;;;;;26.96;55.00;100656.63;4939027;29;20043;-90
2023/08/10 08:55:32;;;;;;;15.68;3.55;;;;;;;27.08;55.01;100650.31;4940185;29;20099;-91
2023/08/10 08:57:58;;;;;;;26.50;4.70;;;;;;;27.15;54.95;100660.22;4939535;29;20122;-90
2023/08/10 09:00:24;;;;;;;19.80;4.20;;;;;;;27.37;54.89;100660.53;4956752;29;20141;-89
2023/08/10 09:02:51;;;;;;;33.83;5.63;;;;;;;27.48;54.41;100662.53;4959913;29;20066;-90
2023/08/10 09:05:18;;;;;;;13.23;4.68;;;;;;;27.29;54.37;100638.75;4961353;29;20043;-90
2023/08/10 09:07:44;;;;;;;13.57;3.42;;;;;;;27.31;54.66;100669.75;4957226;28;20054;-90
2023/08/10 09:10:09;;;;;;;17.48;4.93;;;;;;;27.11;55.21;100666.41;4956122;29;20198;-91
2023/08/10 09:12:37;;;;;;;13.93;4.90;;;;;;;27.09;55.35;100668.56;4955884;29;20036;-89
2023/08/10 09:15:05;;;;;;;36.53;9.60;;;;;;;27.21;54.87;100677.75;4938886;29;20094;-89
2023/08/10 09:17:37;;;;;;;12.10;5.57;;;;;;;27.03;54.44;100653.78;4939903;29;20404;-93
2023/08/10 09:20:09;;;;;;;16.48;6.57;;;;;;;27.18;54.88;100679.06;4947350;28;20043;-89
2023/08/10 09:22:37;;;;;;;25.63;11.13;;;;;;;27.16;54.48;100650.81;4979488;28;20058;-89
2023/08/10 09:25:06;;;;;;;17.70;5.43;;;;;;;27.31;54.14;100666.97;4978347;28;20498;-90
2023/08/10 09:27:33;;;;;;;23.08;7.45;;;;;;;27.38;53.35;100667.75;4995150;28;20029;-90
2023/08/10 09:30:04;;;;;;;20.63;8.88;;;;;;;27.32;53.33;100663.16;4993883;28;20038;-89
2023/08/10 09:32:30;;;;;;;15.95;5.28;;;;;;;27.19;54.10;100663.31;4993599;28;20097;-90
2023/08/10 09:34:56;;;;;;;21.10;6.78;;;;;;;27.18;54.06;100672.72;4994023;28;20046;-89
2023/08/10 09:37:23;;;;;;;18.23;6.35;;;;;;;27.25;54.10;100643.91;4976679;28;20706;-90
2023/08/10 09:40:04;;;;;;;18.40;5.50;;;;;;;27.12;53.74;100657.91;4976366;28;20058;-90
2023/08/10 09:42:33;;;;;;;13.50;5.43;;;;;;;27.04;54.41;100656.28;4975680;28;20422;-91
2023/08/10 09:45:04;;;;;;;14.90;4.93;;;;;;;27.09;54.23;100669.41;4976585;28;20031;-91
2023/08/10 09:47:34;;;;;;;19.27;7.90;;;;;;;27.38;53.98;100665.00;4977215;28;20483;-91
2023/08/10 09:50:02;;;;;;;27.67;9.52;;;;;;;27.66;52.74;100672.69;4977773;28;20030;-89
2023/08/10 09:52:28;;;;;;;22.70;6.47;;;;;;;27.90;51.93;100663.38;4975914;28;20054;-90
2023/08/10 09:54:56;;;;;;;15.68;5.47;;;;;;;27.93;52.22;100654.63;4977658;28;20026;-89
2023/08/10 09:57:22;;;;;;;14.52;7.00;;;;;;;27.69;51.38;100659.25;4975197;28;20027;-90
2023/08/10 09:59:49;;;;;;;19.60;6.35;;;;;;;27.68;51.20;100654.78;4973682;28;20129;-90
2023/08/10 10:02:17;;;;;;;11.45;6.15;;;;;;;27.79;50.92;100670.59;4990305;28;20121;-90
2023/08/10 10:04:43;;;;;;;19.45;6.90;;;;;;;27.97;50.19;100661.38;4975201;28;20035;-89
2023/08/10 10:07:11;;;;;;;9.07;5.55;;;;;;;27.87;49.42;100650.03;4974538;28;20080;-88
2023/08/10 10:09:37;;;;;;;14.82;7.18;;;;;;;27.94;48.94;100654.41;4975789;28;20023;-90
2023/08/10 10:12:07;;;;;;;25.55;6.82;;;;;;;27.92;49.13;100659.31;4974696;28;20507;-90
2023/08/10 10:14:35;;;;;;;25.40;7.25;;;;;;;27.68;48.70;100657.56;4989849;28;20117;-90
2023/08/10 10:17:03;;;;;;;15.02;6.25;;;;;;;27.61;49.57;100643.03;4972842;28;20054;-87
2023/08/10 10:19:29;;;;;;;17.52;6.43;;;;;;;27.66;49.58;100637.63;4974413;28;20117;-89
2023/08/10 10:21:55;;;;;;;16.27;6.43;;;;;;;27.79;49.10;100642.94;4974086;28;20113;-88
2023/08/10 10:24:21;;;;;;;25.98;5.97;;;;;;;27.90;48.82;100639.34;4974465;28;20042;-90
2023/08/10 10:27:11;;;;;;;23.23;6.78;;;;;;;27.97;49.21;100647.53;4974578;28;20396;-91
2023/08/10 10:29:37;;;;;;;10.57;6.13;;;;;;;27.79;48.79;100642.09;4975046;28;20035;-90
2023/08/10 10:32:10;;;;;;;15.98;5.63;;;;;;;27.72;48.87;100635.81;4974445;28;20034;-90
2023/08/10 10:34:37;;;;;;;22.50;6.97;;;;;;;27.94;48.91;100628.66;4973369;28;20558;-89
2023/08/10 10:37:12;;;;;;;22.40;4.97;;;;;;;28.12;49.32;100634.13;4990517;28;20058;-91
2023/08/10 10:39:43;;;;;;;14.55;4.70;;;;;;;28.17;49.55;100627.84;4975960;28;20090;-90
2023/08/10 10:42:12;;;;;;;14.90;5.03;;;;;;;28.16;49.64;100620.66;4988087;28;20586;-88
2023/08/10 10:44:58;;;;;;;13.77;6.28;;;;;;;28.40;49.81;100638.94;4988059;28;20173;-91
2023/08/10 10:47:35;;;;;;;37.10;6.57;;;;;;;28.32;49.39;100639.28;4974016;28;20023;-90
2023/08/10 10:50:12;;;;;;;20.02;8.40;;;;;;;28.53;49.06;100617.38;4977332;28;20469;-90
2023/08/10 10:52:38;;;;;;;12.95;4.43;;;;;;;28.67;48.71;100625.47;4988189;28;20019;-89
2023/08/10 10:55:08;;;;;;;17.27;4.68;;;;;;;28.56;48.49;100610.53;4973999;28;20451;-90
2023/08/10 10:57:34;;;;;;;13.23;5.05;;;;;;;28.56;47.88;100610.53;4972897;28;20125;-88
2023/08/10 10:59:59;;;;;;;14.93;5.25;;;;;;;28.57;47.85;100614.97;4978194;28;20074;-89
2023/08/10 11:02:26;;;;;;;14.95;4.25;;;;;;;28.50;47.76;100611.53;4982677;28;20543;-85
2023/08/10 11:04:52;;;;;;;26.50;4.80;;;;;;;28.46;47.73;100624.16;4973647;28;20026;-88
2023/08/10 11:07:18;;;;;;;16.77;5.80;;;;;;;28.43;47.85;100621.84;4974154;28;20054;-91
2023/08/10 11:09:43;;;;;;;19.25;4.30;;;;;;;28.19;47.99;100625.72;4975247;28;20030;-93
2023/08/10 11:12:09;;;;;;;21.27;4.85;;;;;;;28.08;47.89;100611.63;4975408;28;20461;-92
2023/08/10 11:14:36;;;;;;;11.18;4.47;;;;;;;28.29;47.33;100625.94;4973289;28;20039;-91
2023/08/10 11:17:02;;;;;;;15.68;5.07;;;;;;;28.14;46.97;100617.28;4989153;28;20067;-92
2023/08/10 11:19:30;;;;;;;11.57;5.38;;;;;;;28.16;46.90;100628.97;4957406;28;20037;-93